Tropical Cyclones
[Index]
Season 2017-2018 Tropical Cyclone DAHLIA Track Map
Season 2017-2018 Summaries: [BoM-AU] [JTWC-AU] [JTWC-SIO] [JTWC-SPAC] [JTWC-SH]
<<- Previous TC | JTWC 2017-2018 Season | Next TC ->>

click for intensity scale information  Lat/long Grid: Show Hide

 Date Labels: Show Hide

Joint Typhoon Warning Centre Cyclone Data

Name: DAHLIA

28 Nov 2017 12:00 UTC to 07 Dec 2017 00:00 UTC

    date/time    lat    long     hPa   cat  kts
2017-11-28 12    8.4    99.6    1007         20          
2017-11-28 18    8.2   100.3    1007         20          
2017-11-29 00    8.1   100.8    1004         25          
2017-11-29 06    8.2   101.9    1002         30          
2017-11-29 12    8.5   102.9    1000         35          
2017-11-29 18    8.8   103.8    1000         35          
2017-11-30 00    9.0   105.2     997    1    40          
2017-11-30 06    9.1   106.4     997    1    40          
2017-11-30 12    9.3   107.3     995    1    45          
2017-11-30 18    9.5   108.2     993    1    45          
2017-12-01 00    9.7   109.2     988    2    55          
2017-12-01 00    9.7   109.2     988    2    55          
2017-12-01 06   10.0   109.9     992    1    50          
2017-12-01 06   10.0   109.9     992    1    50          
2017-12-01 12   10.4   110.4     992    1    50          
2017-12-01 12   10.4   110.4     992    1    50          
2017-12-01 18   10.6   110.6     992    1    50          
2017-12-01 18   10.6   110.6     992    1    50          
2017-12-02 00   10.8   110.9     996    1    45          
2017-12-02 06   10.9   111.3     999    1    40          
2017-12-02 12   11.2   112.0     999    1    40          
2017-12-02 18   11.8   112.3    1002         35          
2017-12-03 00   12.5   112.4    1002         35          
2017-12-03 06   13.8   112.4    1002         35          
2017-12-03 12   14.9   112.1    1002         35          
2017-12-03 18   15.7   111.8    1004         30          
2017-12-04 00   16.3   111.4    1005         25          
2017-12-04 06   17.1   111.0    1005         25          
2017-12-04 12   17.5   110.9    1005         25          
2017-12-04 18   17.8   110.6    1005         25          
2017-12-05 00   17.6   110.4    1004         25          
2017-12-05 06   17.3   110.4    1004         25          
2017-12-05 12   17.0   110.5    1005         20          
2017-12-05 18   16.8   110.7    1005         20          
2017-12-06 00   16.4   111.0    1006         20          
2017-12-06 06   15.9   111.3    1008         15          
2017-12-06 12   15.2   111.7    1008         15          
2017-12-06 18   14.7   112.3    1010         15          
2017-12-07 00   14.2   113.0    1012         10          
Winds are 1-min average.

Tropical cyclone tracks developed by Michael Bath using data from the Joint Typhoon Warning Centre Best Tracks and Google Maps.


Document: tropical_cyclone_dahlia.htm
Updated: 17 June 2020
[Australian Severe Weather index] [Copyright Notice] [Email Contacts] [Search This Site] [Privacy Policy]


Main Index Home Page Stock Weather Photos Extreme Storms Discussion Storm News and Storm Chasing Reports Tropical Cyclones / Hurricanes / Typhoons Weather Data and Links Wild Fires / Bushfires Weather Observation Techniques Weather Picture Catalogue Tornado Pictures and Reports Stock Video Footage and DVDs for sale